createdAt,value
2022-08-05T00:00:52.232Z,81.42
2022-08-05T00:03:57.078Z,79.58
2022-08-05T00:07:00.266Z,80.23
2022-08-05T00:10:27.127Z,77.35
2022-08-05T00:13:39.272Z,78.46
2022-08-05T00:16:52.995Z,80.99
2022-08-05T00:20:01.960Z,81.07
2022-08-05T00:23:12.857Z,82.16
2022-08-05T00:26:16.643Z,80.51
2022-08-05T00:29:22.531Z,80.38
2022-08-05T00:32:27.959Z,78.94
2022-08-05T00:35:33.358Z,77.83
2022-08-05T00:38:36.378Z,78.54
2022-08-05T00:41:55.305Z,78.07
2022-08-05T00:44:58.429Z,78.02
2022-08-05T00:48:05.932Z,78.65
2022-08-05T00:51:51.763Z,77.27
2022-08-05T00:54:33.187Z,78.78
2022-08-05T00:57:55.644Z,78.85
2022-08-05T01:00:59.231Z,78.92
2022-08-05T01:04:02.087Z,79.11
2022-08-05T01:07:06.490Z,78.83
2022-08-05T01:10:17.133Z,78.66
2022-08-05T01:13:27.153Z,77.88
2022-08-05T01:16:32.053Z,78.40
2022-08-05T01:20:01.569Z,77.74
2022-08-05T01:23:14.947Z,78.65
2022-08-05T01:26:34.263Z,78.04
2022-08-05T01:29:42.971Z,78.88
2022-08-05T01:32:48.074Z,77.47
2022-08-05T01:35:53.418Z,78.20
2022-08-05T01:38:56.665Z,76.69
2022-08-05T01:42:04.411Z,77.07
2022-08-05T01:45:10.649Z,78.01
2022-08-05T01:48:13.831Z,77.65
2022-08-05T01:51:18.421Z,77.86
2022-08-05T01:54:25.619Z,77.17
2022-08-05T01:58:29.947Z,77.96
2022-08-05T02:00:57.120Z,76.52
2022-08-05T02:04:01.465Z,77.15
2022-08-05T02:07:04.380Z,75.40
2022-08-05T02:10:10.633Z,76.88
2022-08-05T02:13:24.381Z,77.60
2022-08-05T02:16:34.062Z,76.93
2022-08-05T02:19:40.602Z,77.51
2022-08-05T02:22:56.141Z,76.62
2022-08-05T02:26:01.489Z,77.62
2022-08-05T02:29:05.170Z,77.67
2022-08-05T02:32:24.192Z,76.37
2022-08-05T02:35:37.850Z,76.55
2022-08-05T02:38:52.907Z,76.44
2022-08-05T02:42:01.179Z,76.87
2022-08-05T02:45:05.069Z,76.21
2022-08-05T02:48:12.892Z,77.08
2022-08-05T02:51:17.027Z,75.71
2022-08-05T02:54:34.782Z,77.06
2022-08-05T02:58:09.385Z,77.87
2022-08-05T03:01:03.723Z,76.22
2022-08-05T03:04:13.963Z,76.18
2022-08-05T03:07:24.713Z,75.11
2022-08-05T03:10:40.121Z,74.84
2022-08-05T03:13:51.838Z,75.35
2022-08-05T03:17:09.038Z,74.97
2022-08-05T03:20:13.823Z,73.89
2022-08-05T03:23:16.923Z,74.67
2022-08-05T03:26:31.682Z,74.47
2022-08-05T03:29:45.566Z,73.96
2022-08-05T03:32:58.039Z,71.54
2022-08-05T03:36:02.495Z,70.33
2022-08-05T03:39:12.998Z,70.30
2022-08-05T03:42:22.866Z,70.50
2022-08-05T03:45:29.835Z,70.07
2022-08-05T03:48:52.583Z,69.47
2022-08-05T03:52:38.328Z,68.56
2022-08-05T03:56:04.086Z,68.21
2022-08-05T03:58:51.150Z,68.21
2022-08-05T04:01:58.920Z,68.29
2022-08-05T04:05:02.858Z,67.90
2022-08-05T04:08:29.613Z,67.33
2022-08-05T04:11:47.410Z,67.78
2022-08-05T04:14:53.770Z,67.22
2022-08-05T04:18:02.732Z,66.88
2022-08-05T04:21:06.029Z,67.62
2022-08-05T04:24:18.830Z,67.21
2022-08-05T04:27:33.282Z,67.04
2022-08-05T04:30:46.674Z,66.77
2022-08-05T04:33:54.716Z,66.95
2022-08-05T04:37:13.701Z,66.37
2022-08-05T04:40:19.482Z,66.93
2022-08-05T04:43:22.532Z,66.47
2022-08-05T04:46:28.783Z,66.43
2022-08-05T04:50:01.129Z,66.04
2022-08-05T04:52:54.296Z,66.54
2022-08-05T04:56:33.657Z,66.28
2022-08-05T04:59:26.680Z,65.48
2022-08-05T05:02:43.311Z,65.24
2022-08-05T05:06:35.807Z,65.67
2022-08-05T05:09:09.883Z,65.71
2022-08-05T05:12:18.408Z,65.60
2022-08-05T05:15:57.003Z,65.57
2022-08-05T05:19:09.041Z,65.15
2022-08-05T05:22:24.396Z,64.47
2022-08-05T05:25:40.545Z,64.71
2022-08-05T05:28:45.358Z,64.44
2022-08-05T05:31:48.323Z,64.24
2022-08-05T05:34:53.867Z,63.87
2022-08-05T05:37:59.783Z,64.30
2022-08-05T05:41:03.552Z,63.89
2022-08-05T05:44:36.079Z,64.61
2022-08-05T05:48:05.378Z,64.33
2022-08-05T05:50:58.669Z,63.84
2022-08-05T05:54:17.615Z,63.23
2022-08-05T05:57:22.626Z,63.83
2022-08-05T06:00:34.069Z,64.97
2022-08-05T06:03:40.503Z,63.57
2022-08-05T06:07:01.487Z,64.11
2022-08-05T06:10:10.021Z,63.99
2022-08-05T06:13:13.861Z,65.04
2022-08-05T06:16:30.644Z,63.40
2022-08-05T06:19:35.789Z,63.61
2022-08-05T06:22:40.501Z,63.52
2022-08-05T06:26:12.259Z,63.82
2022-08-05T06:29:25.444Z,63.52
2022-08-05T06:32:32.609Z,62.99
2022-08-05T06:36:07.297Z,62.85
2022-08-05T06:38:58.678Z,62.92
2022-08-05T06:42:04.099Z,62.79
2022-08-05T06:45:08.488Z,63.02
2022-08-05T06:48:53.098Z,62.99
2022-08-05T06:51:36.143Z,63.00
2022-08-05T06:54:43.836Z,62.42
2022-08-05T06:58:02.639Z,62.53
2022-08-05T07:01:21.014Z,62.49
2022-08-05T07:04:25.481Z,62.10
2022-08-05T07:07:35.411Z,62.27
2022-08-05T07:10:53.427Z,62.41
2022-08-05T07:14:20.657Z,61.83
2022-08-05T07:17:59.332Z,62.15
2022-08-05T07:20:57.191Z,62.92
2022-08-05T07:24:01.218Z,63.58
2022-08-05T07:27:04.460Z,64.52
2022-08-05T07:30:22.211Z,62.30
2022-08-05T07:33:35.234Z,61.42
2022-08-05T07:36:41.820Z,62.23
2022-08-05T07:40:25.890Z,62.65
2022-08-05T07:43:20.319Z,62.34
2022-08-05T07:46:25.976Z,59.94
2022-08-05T07:49:29.167Z,60.45
2022-08-05T07:52:33.325Z,58.87
2022-08-05T07:56:05.903Z,58.10
2022-08-05T07:59:02.472Z,58.97
2022-08-05T08:02:05.456Z,58.24
2022-08-05T08:05:08.800Z,58.13
2022-08-05T08:08:15.729Z,57.57
2022-08-05T08:11:18.629Z,57.84
2022-08-05T08:14:30.799Z,57.83
2022-08-05T08:17:34.425Z,57.30
2022-08-05T08:20:45.111Z,56.77
2022-08-05T08:24:05.271Z,56.76
2022-08-05T08:27:09.704Z,56.82
2022-08-05T08:30:28.623Z,57.76
2022-08-05T08:33:38.189Z,56.98
2022-08-05T08:36:47.611Z,56.33
2022-08-05T08:39:56.809Z,56.08
2022-08-05T08:44:57.902Z,55.63
2022-08-05T08:46:24.677Z,55.47
2022-08-05T08:50:06.103Z,55.25
2022-08-05T08:52:55.853Z,54.30
2022-08-05T08:56:03.003Z,54.13
2022-08-05T08:59:19.484Z,53.97
2022-08-05T09:02:26.863Z,55.69
2022-08-05T09:05:38.837Z,55.25
2022-08-05T09:08:53.020Z,54.45
2022-08-05T09:12:04.798Z,54.30
2022-08-05T09:15:16.368Z,54.31
2022-08-05T09:18:19.483Z,55.28
2022-08-05T09:22:22.621Z,55.63
2022-08-05T09:24:57.988Z,56.83
2022-08-05T09:28:10.196Z,49.23
2022-08-05T09:31:22.661Z,55.13
2022-08-05T09:34:53.761Z,50.99
2022-08-05T09:38:17.953Z,44.71
2022-08-05T09:41:21.643Z,49.17
2022-08-05T09:44:39.114Z,53.30
2022-08-05T09:47:55.588Z,55.16
2022-08-05T09:51:02.517Z,54.96
2022-08-05T09:54:08.504Z,55.72
2022-08-05T09:57:23.246Z,55.94
2022-08-05T10:00:30.763Z,55.72
2022-08-05T10:03:56.546Z,55.40
2022-08-05T10:07:20.175Z,55.02
2022-08-05T10:10:28.255Z,55.20
2022-08-05T10:13:45.696Z,55.07
2022-08-05T10:16:53.496Z,55.06
2022-08-05T10:20:03.884Z,54.82
2022-08-05T10:23:34.730Z,55.16
2022-08-05T10:26:37.701Z,54.43
2022-08-05T10:30:07.002Z,54.29
2022-08-05T10:33:18.378Z,53.71
2022-08-05T10:36:23.758Z,54.09
2022-08-05T10:40:03.517Z,53.51
2022-08-05T10:42:55.717Z,53.95
2022-08-05T10:46:06.314Z,52.84
2022-08-05T10:49:16.951Z,53.56
2022-08-05T10:52:39.096Z,52.47
2022-08-05T10:56:14.497Z,51.76
2022-08-05T11:00:04.398Z,51.34
2022-08-05T11:03:24.341Z,51.77
2022-08-05T11:06:31.669Z,51.46
2022-08-05T11:09:49.593Z,50.21
2022-08-05T11:12:55.277Z,51.04
2022-08-05T11:16:22.317Z,51.54
2022-08-05T11:20:16.927Z,52.24
2022-08-05T11:23:33.189Z,53.27
2022-08-05T11:27:08.373Z,51.69
2022-08-05T11:30:15.871Z,50.21
2022-08-05T11:33:45.951Z,50.25
2022-08-05T11:36:55.330Z,50.10
2022-08-05T11:40:03.389Z,49.46
2022-08-05T11:43:07.208Z,48.69
2022-08-05T11:46:32.110Z,48.47
2022-08-05T11:49:36.251Z,49.51
2022-08-05T11:52:39.295Z,49.93
2022-08-05T11:55:58.810Z,48.36
2022-08-05T11:59:02.532Z,48.61
2022-08-05T12:02:06.878Z,49.18
2022-08-05T12:05:36.347Z,47.89
2022-08-05T12:08:49.989Z,49.25
2022-08-05T12:11:57.179Z,48.23
2022-08-05T12:15:02.710Z,48.42
2022-08-05T12:18:10.866Z,48.31
2022-08-05T12:21:17.451Z,48.42
2022-08-05T12:24:21.129Z,48.37
2022-08-05T12:27:33.240Z,47.48
2022-08-05T12:30:39.311Z,47.27
2022-08-05T12:33:49.179Z,48.09
2022-08-05T12:36:53.824Z,48.46
2022-08-05T12:40:03.161Z,49.13
2022-08-05T12:43:09.304Z,47.96
2022-08-05T12:46:26.153Z,48.10
2022-08-05T12:50:02.143Z,47.16
2022-08-05T12:53:06.444Z,47.06
2022-08-05T12:56:34.621Z,47.86
2022-08-05T13:01:58.638Z,48.94
2022-08-05T13:03:14.778Z,48.85
2022-08-05T13:06:20.763Z,49.49
2022-08-05T13:09:28.612Z,49.24
2022-08-05T13:12:31.746Z,49.60
2022-08-05T13:15:50.256Z,50.36
2022-08-05T13:18:57.583Z,49.99
2022-08-05T13:22:00.627Z,50.23
2022-08-05T13:25:07.881Z,50.92
2022-08-05T13:28:11.999Z,50.83
2022-08-05T13:31:18.522Z,50.40
2022-08-05T13:34:41.804Z,50.19
2022-08-05T13:37:46.437Z,50.93
2022-08-05T13:40:58.965Z,49.96
2022-08-05T13:44:03.599Z,49.27
2022-08-05T13:47:09.095Z,48.02
2022-08-05T13:50:16.534Z,46.99
2022-08-05T13:53:19.607Z,48.29
2022-08-05T13:56:22.610Z,47.16
2022-08-05T13:59:27.117Z,48.86
2022-08-05T14:02:31.745Z,49.46
2022-08-05T14:06:04.494Z,51.51
2022-08-05T14:09:00.478Z,51.22
2022-08-05T14:12:17.287Z,52.46
2022-08-05T14:16:05.084Z,52.71
2022-08-05T14:18:45.636Z,53.29
2022-08-05T14:22:09.800Z,53.06
2022-08-05T14:25:21.814Z,52.87
2022-08-05T14:28:26.130Z,53.86
2022-08-05T14:31:54.579Z,52.92
2022-08-05T14:34:57.724Z,54.63
2022-08-05T14:38:01.111Z,54.10
2022-08-05T14:41:06.422Z,53.24
2022-08-05T14:44:20.412Z,53.48
2022-08-05T14:48:03.268Z,53.10
2022-08-05T14:50:49.713Z,53.17
2022-08-05T14:54:26.371Z,53.83
2022-08-05T14:57:15.924Z,53.06
2022-08-05T15:00:21.450Z,53.20
2022-08-05T15:03:33.654Z,48.70
2022-08-05T15:06:38.596Z,51.17
2022-08-05T15:09:52.287Z,50.81
2022-08-05T15:13:04.309Z,51.88
2022-08-05T15:16:08.070Z,51.45
2022-08-05T15:19:23.435Z,52.26
2022-08-05T15:22:28.702Z,52.97
2022-08-05T15:25:41.062Z,52.83
2022-08-05T15:28:54.477Z,52.07
2022-08-05T15:31:57.467Z,52.52
2022-08-05T15:35:10.670Z,52.02
2022-08-05T15:38:33.632Z,51.84
2022-08-05T15:41:57.631Z,51.55
2022-08-05T15:45:02.315Z,51.40
2022-08-05T15:48:05.875Z,52.19
2022-08-05T15:51:09.856Z,51.39
2022-08-05T15:54:15.883Z,52.51
2022-08-05T15:57:18.803Z,53.93
2022-08-05T16:00:26.050Z,54.06
2022-08-05T16:03:35.564Z,53.55
2022-08-05T16:06:43.887Z,52.81
2022-08-05T16:09:48.671Z,53.06
2022-08-05T16:12:51.576Z,53.50
2022-08-05T16:15:55.433Z,52.36
2022-08-05T16:18:58.243Z,52.60
2022-08-05T16:22:03.677Z,53.41
2022-08-05T16:25:09.679Z,53.76
2022-08-05T16:28:13.812Z,55.09
2022-08-05T16:31:20.647Z,55.29
2022-08-05T16:34:25.263Z,55.71
2022-08-05T16:38:02.446Z,53.90
2022-08-05T16:40:59.630Z,55.53
2022-08-05T16:44:03.557Z,55.05
2022-08-05T16:47:07.637Z,53.37
2022-08-05T16:50:30.714Z,54.94
2022-08-05T16:54:05.243Z,54.32
2022-08-05T16:57:01.693Z,56.23
2022-08-05T17:00:10.448Z,55.41
2022-08-05T17:03:20.068Z,57.06
2022-08-05T17:06:24.601Z,57.88
2022-08-05T17:09:27.665Z,58.10
2022-08-05T17:12:51.501Z,59.95
2022-08-05T17:16:02.807Z,57.80
2022-08-05T17:19:18.001Z,59.50
2022-08-05T17:22:25.474Z,60.61
2022-08-05T17:25:34.180Z,58.53
2022-08-05T17:28:44.442Z,59.99
2022-08-05T17:31:58.403Z,60.81
2022-08-05T17:35:01.940Z,59.48
2022-08-05T17:38:07.544Z,62.21
2022-08-05T17:41:11.574Z,64.55
2022-08-05T17:44:35.445Z,64.89
2022-08-05T17:47:38.280Z,63.08
2022-08-05T17:50:41.832Z,62.14
2022-08-05T17:53:45.890Z,63.90
2022-08-05T17:56:57.249Z,64.86
2022-08-05T18:00:03.363Z,65.48
2022-08-05T18:03:10.321Z,66.47
2022-08-05T18:06:15.347Z,66.61
2022-08-05T18:09:18.988Z,68.58
2022-08-05T18:12:24.311Z,70.00
2022-08-05T18:15:38.743Z,67.41
2022-08-05T18:18:49.809Z,69.76
2022-08-05T18:22:08.397Z,72.23
2022-08-05T18:25:14.070Z,72.12
2022-08-05T18:28:21.794Z,71.38
2022-08-05T18:31:33.048Z,73.82
2022-08-05T18:34:41.026Z,73.87
2022-08-05T18:37:45.895Z,73.85
2022-08-05T18:41:55.934Z,73.87
2022-08-05T18:44:15.561Z,74.52
2022-08-05T18:47:39.358Z,73.09
2022-08-05T18:52:03.286Z,68.33
2022-08-05T18:54:25.221Z,72.30
2022-08-05T18:57:42.899Z,74.13
2022-08-05T19:00:46.633Z,75.03
2022-08-05T19:03:56.600Z,71.68
2022-08-05T19:06:59.848Z,73.18
2022-08-05T19:10:04.517Z,75.23
2022-08-05T19:13:15.980Z,73.98
2022-08-05T19:16:24.477Z,75.34
2022-08-05T19:19:34.112Z,71.72
2022-08-05T19:22:39.733Z,73.26
2022-08-05T19:25:47.706Z,73.64
2022-08-05T19:28:50.923Z,72.43
2022-08-05T19:31:56.058Z,74.08
2022-08-05T19:35:06.448Z,75.91
2022-08-05T19:38:10.049Z,76.51
2022-08-05T19:41:16.693Z,79.67
2022-08-05T19:44:29.109Z,82.83
2022-08-05T19:47:32.209Z,80.62
2022-08-05T19:50:39.084Z,81.83
2022-08-05T19:54:04.222Z,82.56
2022-08-05T19:57:09.545Z,81.45
2022-08-05T20:00:13.526Z,82.02
2022-08-05T20:03:16.682Z,86.96
2022-08-05T20:06:28.679Z,83.99
2022-08-05T20:09:54.888Z,83.66
2022-08-05T20:12:55.534Z,82.33
2022-08-05T20:15:59.723Z,81.83
2022-08-05T20:19:04.475Z,82.70
2022-08-05T20:22:13.625Z,81.72
2022-08-05T20:25:16.456Z,79.60
2022-08-05T20:28:19.397Z,82.94
2022-08-05T20:31:28.370Z,81.25
2022-08-05T20:34:44.848Z,87.46
2022-08-05T20:38:05.659Z,99.10
2022-08-05T20:41:09.609Z,100.00
2022-08-05T20:44:19.192Z,100.00
2022-08-05T20:47:32.751Z,100.00
2022-08-05T20:50:39.703Z,100.00
2022-08-05T20:53:56.521Z,100.00
2022-08-05T20:56:59.856Z,100.00
2022-08-05T21:00:20.532Z,100.00
2022-08-05T21:03:34.715Z,100.00
2022-08-05T21:06:37.757Z,100.00
2022-08-05T21:09:53.808Z,100.00
2022-08-05T21:13:08.874Z,100.00
2022-08-05T21:16:17.840Z,100.00
2022-08-05T21:19:20.667Z,97.51
2022-08-05T21:22:26.703Z,99.72
2022-08-05T21:25:33.934Z,97.08
2022-08-05T21:28:37.185Z,99.51
2022-08-05T21:31:41.999Z,98.15
2022-08-05T21:34:44.952Z,100.00
2022-08-05T21:38:07.704Z,100.00
2022-08-05T21:41:12.089Z,100.00
2022-08-05T21:44:18.791Z,96.54
2022-08-05T21:47:55.714Z,97.33
2022-08-05T21:50:54.154Z,95.71
2022-08-05T21:54:03.554Z,93.15
2022-08-05T21:57:31.705Z,90.52
2022-08-05T22:00:31.312Z,91.92
2022-08-05T22:03:48.529Z,91.93
2022-08-05T22:06:57.055Z,94.22
2022-08-05T22:10:00.178Z,92.62
2022-08-05T22:13:09.218Z,89.80
2022-08-05T22:16:41.779Z,91.44
2022-08-05T22:20:02.476Z,95.14
2022-08-05T22:24:02.160Z,94.49
2022-08-05T22:27:11.022Z,92.42
2022-08-05T22:30:20.775Z,95.12
2022-08-05T22:33:55.340Z,94.87
2022-08-05T22:36:46.502Z,95.59
2022-08-05T22:39:50.996Z,93.66
2022-08-05T22:42:58.447Z,96.52
2022-08-05T22:46:07.403Z,97.57
2022-08-05T22:50:17.639Z,99.60
2022-08-05T22:52:38.021Z,93.45
2022-08-05T22:55:56.774Z,88.66
2022-08-05T22:59:03.936Z,91.63
2022-08-05T23:02:29.701Z,93.90
2022-08-05T23:05:36.167Z,95.96
2022-08-05T23:08:39.093Z,100.00
2022-08-05T23:11:46.602Z,100.00
2022-08-05T23:14:52.237Z,100.00
2022-08-05T23:18:01.636Z,100.00
2022-08-05T23:21:05.924Z,100.00
2022-08-05T23:24:13.015Z,100.00
2022-08-05T23:27:16.421Z,100.00
2022-08-05T23:30:26.947Z,100.00
2022-08-05T23:34:04.952Z,96.82
2022-08-05T23:36:54.855Z,98.77
2022-08-05T23:39:57.746Z,96.51
2022-08-05T23:43:00.701Z,97.96
2022-08-05T23:46:20.677Z,99.79
2022-08-05T23:49:35.982Z,99.04
2022-08-05T23:52:49.796Z,100.00
2022-08-05T23:55:53.383Z,95.87
2022-08-05T23:58:58.655Z,100.00
